createdAt,value
2017-12-31T00:04:18.250Z,3.1
2017-12-31T00:09:18.292Z,3.3
2017-12-31T00:14:18.267Z,3.3
2017-12-31T00:19:18.528Z,3.2
2017-12-31T00:24:18.343Z,3.2
2017-12-31T00:29:18.609Z,3.2
2017-12-31T00:34:18.462Z,3.1
2017-12-31T00:39:18.237Z,3.1
2017-12-31T00:44:18.255Z,3.1
2017-12-31T00:49:18.262Z,3.1
2017-12-31T00:54:18.265Z,3.2
2017-12-31T00:59:18.421Z,3.2
2017-12-31T01:04:18.407Z,3.3
2017-12-31T01:09:18.355Z,3.3
2017-12-31T01:14:18.298Z,3.3
2017-12-31T01:19:18.268Z,3.3
2017-12-31T01:24:18.280Z,3.4
2017-12-31T01:29:18.371Z,3.4
2017-12-31T01:34:18.328Z,3.4
2017-12-31T01:39:18.295Z,3.5
2017-12-31T01:44:18.281Z,3.5
2017-12-31T01:49:18.323Z,3.5
2017-12-31T01:54:18.335Z,3.5
2017-12-31T01:59:18.310Z,3.6
2017-12-31T02:04:18.322Z,4.8
2017-12-31T02:09:18.287Z,6.2
2017-12-31T02:14:18.313Z,6.8
2017-12-31T02:19:18.476Z,7.2
2017-12-31T02:24:18.300Z,8
2017-12-31T02:29:18.307Z,8
2017-12-31T02:34:18.312Z,8.2
2017-12-31T02:39:18.443Z,8.5
2017-12-31T02:44:18.313Z,8.6
2017-12-31T02:49:18.457Z,8.7
2017-12-31T02:54:18.363Z,8.9
2017-12-31T02:59:18.407Z,9
2017-12-31T03:04:18.337Z,9.2
2017-12-31T03:09:18.354Z,9.3
2017-12-31T03:14:18.324Z,9.2
2017-12-31T03:19:18.333Z,9.1
2017-12-31T03:24:18.335Z,9
2017-12-31T03:29:18.496Z,8.9
2017-12-31T03:34:18.338Z,8.9
2017-12-31T03:39:18.355Z,9
2017-12-31T03:44:18.345Z,9
2017-12-31T03:49:18.352Z,9
2017-12-31T03:54:18.345Z,9
2017-12-31T03:59:18.348Z,8.9
2017-12-31T04:04:18.525Z,9
2017-12-31T04:09:18.368Z,8.9
2017-12-31T04:14:18.400Z,8.8
2017-12-31T04:19:18.479Z,8.9
2017-12-31T04:24:18.374Z,9
2017-12-31T04:29:18.552Z,9
2017-12-31T04:34:18.384Z,9.1
2017-12-31T04:39:18.374Z,9.2
2017-12-31T04:44:18.372Z,9.1
2017-12-31T04:49:18.480Z,9.3
2017-12-31T04:54:18.392Z,9.4
2017-12-31T04:59:18.565Z,9.5
2017-12-31T05:04:18.380Z,9.5
2017-12-31T05:09:18.390Z,9.7
2017-12-31T05:14:18.392Z,9.6
2017-12-31T05:19:18.549Z,9.7
2017-12-31T05:24:18.400Z,9.8
2017-12-31T05:29:18.413Z,9.9
2017-12-31T05:34:18.404Z,9.8
2017-12-31T05:39:18.409Z,9.9
2017-12-31T05:44:18.435Z,10
2017-12-31T05:49:18.522Z,9.9
2017-12-31T05:54:18.415Z,9.9
2017-12-31T05:59:18.416Z,9.9
2017-12-31T06:04:18.416Z,9.8
2017-12-31T06:09:18.433Z,9.9
2017-12-31T06:14:18.438Z,9.8
2017-12-31T06:19:18.588Z,10
2017-12-31T06:24:18.460Z,9.8
2017-12-31T06:29:18.451Z,9.8
2017-12-31T06:34:18.456Z,10
2017-12-31T06:39:18.441Z,9.9
2017-12-31T06:44:18.442Z,9.8
2017-12-31T06:49:18.603Z,9.9
2017-12-31T06:54:18.442Z,10
2017-12-31T06:59:18.610Z,9.8
2017-12-31T07:04:18.571Z,9.7
2017-12-31T07:09:18.451Z,9.8
2017-12-31T07:14:18.631Z,9.8
2017-12-31T07:19:18.556Z,9.7
2017-12-31T07:24:18.469Z,9.8
2017-12-31T07:29:18.670Z,9.9
2017-12-31T07:34:18.458Z,10.1
2017-12-31T07:39:18.821Z,10.3
2017-12-31T07:44:18.472Z,10.4
2017-12-31T07:49:18.489Z,10.5
2017-12-31T07:54:21.828Z,10.6
2017-12-31T07:59:18.489Z,10.5
2017-12-31T08:04:18.610Z,10.6
2017-12-31T08:09:18.509Z,10.9
2017-12-31T08:14:18.501Z,11.1
2017-12-31T08:19:18.504Z,11.2
2017-12-31T08:24:18.552Z,11.1
2017-12-31T08:29:18.532Z,11.1
2017-12-31T08:34:18.517Z,11.3
2017-12-31T08:39:18.525Z,11.3
2017-12-31T08:44:18.687Z,11.3
2017-12-31T08:49:18.512Z,11.3
2017-12-31T08:54:19.016Z,11.5
2017-12-31T08:59:18.535Z,11.3
2017-12-31T09:04:18.539Z,11.3
2017-12-31T09:09:18.633Z,11.3
2017-12-31T09:14:18.646Z,11.3
2017-12-31T09:19:18.574Z,11.4
2017-12-31T09:24:19.770Z,11.4
2017-12-31T09:29:27.102Z,11.4
2017-12-31T09:34:18.541Z,11.4
2017-12-31T09:39:18.568Z,11.4
2017-12-31T09:44:18.642Z,11.4
2017-12-31T09:49:18.569Z,11.3
2017-12-31T09:54:18.586Z,11.4
2017-12-31T09:59:18.617Z,11.4
2017-12-31T10:04:18.572Z,11.4
2017-12-31T10:09:18.626Z,11.4
2017-12-31T10:14:18.568Z,11.5
2017-12-31T10:19:18.672Z,11.6
2017-12-31T10:24:18.565Z,11.6
2017-12-31T10:29:18.576Z,11.7
2017-12-31T10:34:18.598Z,11.6
2017-12-31T10:39:18.612Z,11.7
2017-12-31T10:44:18.596Z,11.7
2017-12-31T10:49:22.188Z,11.8
2017-12-31T10:54:22.617Z,11.8
2017-12-31T10:59:21.514Z,11.8
2017-12-31T11:04:21.026Z,11.9
2017-12-31T11:09:18.665Z,12.1
2017-12-31T11:14:28.678Z,12.2
2017-12-31T11:19:18.594Z,12.4
2017-12-31T11:24:21.814Z,12.4
2017-12-31T11:29:19.069Z,12.6
2017-12-31T11:34:21.022Z,12.8
2017-12-31T11:39:19.079Z,12.7
2017-12-31T11:44:18.930Z,12.7
2017-12-31T11:49:18.903Z,12.8
2017-12-31T11:54:18.874Z,12.7
2017-12-31T11:59:18.859Z,12.9
2017-12-31T12:04:19.067Z,13
2017-12-31T12:09:18.878Z,12.9
2017-12-31T12:14:18.912Z,13
2017-12-31T12:19:19.729Z,13
2017-12-31T12:24:22.008Z,13
2017-12-31T12:29:18.999Z,13.1
2017-12-31T12:34:19.000Z,13.3
2017-12-31T12:39:18.984Z,13.3
2017-12-31T12:44:20.887Z,13.2
2017-12-31T12:49:21.251Z,13.4
2017-12-31T12:54:22.117Z,13.4
2017-12-31T12:59:18.889Z,13.4
2017-12-31T13:04:19.002Z,13.4
2017-12-31T13:09:18.854Z,13.4
2017-12-31T13:14:18.954Z,13.4
2017-12-31T13:19:19.000Z,13.4
2017-12-31T13:24:19.300Z,13.5
2017-12-31T13:29:19.136Z,13.5
2017-12-31T13:34:18.912Z,13.6
2017-12-31T13:39:19.408Z,13.6
2017-12-31T13:44:20.565Z,13.5
2017-12-31T13:49:24.651Z,13.5
2017-12-31T13:54:19.339Z,13.5
2017-12-31T13:59:18.929Z,13.3
2017-12-31T14:04:19.165Z,13.2
2017-12-31T14:09:18.994Z,13.1
2017-12-31T14:14:19.022Z,12.9
2017-12-31T14:19:18.890Z,12.8
2017-12-31T14:24:19.108Z,12.7
2017-12-31T14:29:18.937Z,12.6
2017-12-31T14:34:18.932Z,12.6
2017-12-31T14:39:18.932Z,12.5
2017-12-31T14:44:19.177Z,12.4
2017-12-31T14:49:18.923Z,12.3
2017-12-31T14:54:18.969Z,12.1
2017-12-31T14:59:18.908Z,12
2017-12-31T15:04:19.211Z,11.9
2017-12-31T15:09:18.977Z,11.7
2017-12-31T15:14:23.988Z,11.6
2017-12-31T15:19:18.818Z,11.4
2017-12-31T15:24:19.098Z,11.2
2017-12-31T15:29:18.864Z,11
2017-12-31T15:34:18.828Z,10.8
2017-12-31T15:39:18.915Z,10.6
2017-12-31T15:44:18.831Z,10.4
2017-12-31T15:49:18.868Z,10.3
2017-12-31T15:54:18.959Z,10.1
2017-12-31T15:59:18.873Z,10
2017-12-31T16:04:19.112Z,9.6
2017-12-31T16:09:19.439Z,9.4
2017-12-31T16:14:18.882Z,9.4
2017-12-31T16:19:18.996Z,9.2
2017-12-31T16:24:18.873Z,9
2017-12-31T16:29:18.865Z,8.8
2017-12-31T16:34:18.924Z,8.8
2017-12-31T16:39:18.855Z,9
2017-12-31T16:44:19.041Z,8.4
2017-12-31T16:49:18.911Z,8.2
2017-12-31T16:54:18.871Z,8
2017-12-31T16:59:18.885Z,8
2017-12-31T17:04:18.878Z,7.9
2017-12-31T17:09:19.664Z,8
2017-12-31T17:14:20.953Z,7.7
2017-12-31T17:19:19.629Z,7.7
2017-12-31T17:24:19.658Z,7.8
2017-12-31T17:29:19.652Z,7.7
2017-12-31T17:34:29.633Z,7.8
2017-12-31T17:39:19.667Z,7.7
2017-12-31T17:44:19.709Z,7.7
2017-12-31T17:49:19.681Z,7.5
2017-12-31T17:54:19.881Z,7.5
2017-12-31T17:59:19.708Z,7.4
2017-12-31T18:04:19.694Z,7.3
2017-12-31T18:09:19.921Z,7.2
2017-12-31T18:14:19.791Z,7.2
2017-12-31T18:19:19.675Z,7.2
2017-12-31T18:24:19.861Z,7.1
2017-12-31T18:29:19.681Z,7
2017-12-31T18:34:19.704Z,6.9
2017-12-31T18:39:19.709Z,6.7
2017-12-31T18:44:19.967Z,6.6
2017-12-31T18:49:19.869Z,6.6
2017-12-31T18:54:19.841Z,6.5
2017-12-31T18:59:19.711Z,6.4
2017-12-31T19:04:19.710Z,6.4
2017-12-31T19:09:20.663Z,6.4
2017-12-31T19:14:19.896Z,6.4
2017-12-31T19:19:19.757Z,6.3
2017-12-31T19:24:19.801Z,6.1
2017-12-31T19:29:19.820Z,6.2
2017-12-31T19:34:19.713Z,6.1
2017-12-31T19:39:19.877Z,6.1
2017-12-31T19:44:19.727Z,6.1
2017-12-31T19:49:19.973Z,6.1
2017-12-31T19:54:19.922Z,6
2017-12-31T19:59:19.744Z,6
2017-12-31T20:04:19.735Z,6.1
2017-12-31T20:09:19.775Z,6
2017-12-31T20:14:20.014Z,5.9
2017-12-31T20:19:19.738Z,5.9
2017-12-31T20:24:19.872Z,5.9
2017-12-31T20:29:19.760Z,5.8
2017-12-31T20:34:19.955Z,5.8
2017-12-31T20:39:19.833Z,5.8
2017-12-31T20:44:19.795Z,5.6
2017-12-31T20:49:19.930Z,5.4
2017-12-31T20:54:19.819Z,5.4
2017-12-31T20:59:19.785Z,5.3
2017-12-31T21:04:19.787Z,5.3
2017-12-31T21:09:20.348Z,5.2
2017-12-31T21:14:19.865Z,5.2
2017-12-31T21:19:19.948Z,5.1
2017-12-31T21:24:19.977Z,5
2017-12-31T21:29:19.956Z,4.9
2017-12-31T21:34:20.188Z,4.9
2017-12-31T21:39:20.481Z,4.7
2017-12-31T21:44:20.077Z,4.4
2017-12-31T21:49:20.010Z,4.5
2017-12-31T21:54:19.857Z,4.4
2017-12-31T21:59:19.823Z,4.3
2017-12-31T22:04:19.831Z,4.1
2017-12-31T22:09:19.795Z,3.9
2017-12-31T22:14:19.814Z,4
2017-12-31T22:19:19.815Z,3.9
2017-12-31T22:24:19.826Z,3.9
2017-12-31T22:29:20.339Z,3.8
2017-12-31T22:34:19.826Z,3.4
2017-12-31T22:39:19.854Z,3.5
2017-12-31T22:44:19.857Z,3.3
2017-12-31T22:49:19.937Z,3.2
2017-12-31T22:54:19.968Z,3.3
2017-12-31T22:59:20.027Z,3.3
2017-12-31T23:04:19.866Z,3.1
2017-12-31T23:09:19.945Z,3.2
2017-12-31T23:14:19.874Z,3.2
2017-12-31T23:19:20.110Z,3.1
2017-12-31T23:24:19.917Z,3
2017-12-31T23:29:19.844Z,2.9
2017-12-31T23:34:19.855Z,3
2017-12-31T23:39:20.009Z,2.9
2017-12-31T23:44:19.966Z,2.8
2017-12-31T23:49:19.855Z,2.8
2017-12-31T23:54:29.469Z,2.8
2017-12-31T23:59:29.452Z,2.7
